createdAt,value
2016-11-30T00:00:10.143Z,0
2016-11-30T00:01:10.164Z,0
2016-11-30T00:02:10.157Z,0
2016-11-30T00:03:09.863Z,0
2016-11-30T00:04:09.878Z,0
2016-11-30T00:05:10.522Z,0
2016-11-30T00:06:10.223Z,0
2016-11-30T00:07:10.527Z,0
2016-11-30T00:08:10.879Z,0
2016-11-30T00:09:10.576Z,0
2016-11-30T00:10:10.566Z,0
2016-11-30T00:11:10.255Z,0
2016-11-30T00:12:09.957Z,0
2016-11-30T00:13:10.289Z,0
2016-11-30T00:14:10.924Z,0
2016-11-30T00:15:10.311Z,0
2016-11-30T00:16:10.624Z,0
2016-11-30T00:17:10.346Z,0
2016-11-30T00:18:10.335Z,0
2016-11-30T00:19:10.660Z,0
2016-11-30T00:20:10.669Z,0
2016-11-30T00:21:10.686Z,0
2016-11-30T00:22:10.069Z,0
2016-11-30T00:23:10.702Z,0
2016-11-30T00:24:10.406Z,0
2016-11-30T00:25:10.721Z,0
2016-11-30T00:26:10.111Z,0
2016-11-30T00:27:10.426Z,0
2016-11-30T00:28:10.435Z,0
2016-11-30T00:29:10.496Z,0
2016-11-30T00:30:10.455Z,0
2016-11-30T00:31:10.466Z,0
2016-11-30T00:32:11.125Z,0
2016-11-30T00:33:10.826Z,0
2016-11-30T00:34:11.133Z,0
2016-11-30T00:35:09.876Z,0
2016-11-30T00:36:10.519Z,0
2016-11-30T00:37:10.526Z,0
2016-11-30T00:38:09.911Z,0
2016-11-30T00:39:10.546Z,0
2016-11-30T00:40:10.585Z,0
2016-11-30T00:41:10.584Z,0
2016-11-30T00:42:09.976Z,0
2016-11-30T00:43:10.274Z,0
2016-11-30T00:44:10.604Z,0
2016-11-30T00:45:10.925Z,0
2016-11-30T00:46:10.311Z,0
2016-11-30T00:47:10.324Z,0
2016-11-30T00:48:10.654Z,0
2016-11-30T00:49:10.343Z,0
2016-11-30T00:50:10.367Z,0
2016-11-30T00:51:10.988Z,0
2016-11-30T00:52:11.316Z,0
2016-11-30T00:53:10.694Z,0
2016-11-30T00:54:10.389Z,0
2016-11-30T00:55:11.039Z,0
2016-11-30T00:56:10.726Z,0
2016-11-30T00:57:11.058Z,0
2016-11-30T00:58:10.752Z,0
2016-11-30T00:59:10.760Z,0
2016-11-30T01:00:10.456Z,0
2016-11-30T01:01:11.114Z,0
2016-11-30T01:02:11.101Z,0
2016-11-30T01:03:10.795Z,0
2016-11-30T01:04:10.182Z,0
2016-11-30T01:05:10.816Z,0
2016-11-30T01:06:10.524Z,0
2016-11-30T01:07:10.521Z,0
2016-11-30T01:08:11.171Z,0
2016-11-30T01:09:11.201Z,0
2016-11-30T01:10:10.903Z,0
2016-11-30T01:11:11.515Z,0
2016-11-30T01:12:10.889Z,0
2016-11-30T01:13:10.897Z,0
2016-11-30T01:14:10.911Z,0
2016-11-30T01:15:10.605Z,0
2016-11-30T01:16:10.616Z,0
2016-11-30T01:17:10.629Z,0
2016-11-30T01:18:10.327Z,0
2016-11-30T01:19:11.001Z,0
2016-11-30T01:20:11.009Z,0
2016-11-30T01:21:10.980Z,0
2016-11-30T01:22:10.673Z,0
2016-11-30T01:23:10.680Z,0
2016-11-30T01:24:11.034Z,0
2016-11-30T01:25:11.024Z,0
2016-11-30T01:26:10.716Z,0
2016-11-30T01:27:11.042Z,0
2016-11-30T01:28:10.415Z,0
2016-11-30T01:29:11.058Z,0
2016-11-30T01:30:11.705Z,0
2016-11-30T01:31:10.765Z,0
2016-11-30T01:32:11.404Z,0
2016-11-30T01:33:11.441Z,0
2016-11-30T01:34:11.423Z,0
2016-11-30T01:35:11.437Z,0
2016-11-30T01:36:11.136Z,0
2016-11-30T01:37:10.824Z,0
2016-11-30T01:38:11.470Z,0
2016-11-30T01:39:10.848Z,0
2016-11-30T01:40:10.878Z,0
2016-11-30T01:41:10.892Z,0
2016-11-30T01:42:11.509Z,0
2016-11-30T01:43:11.233Z,0
2016-11-30T01:44:10.898Z,0
2016-11-30T01:45:11.540Z,0
2016-11-30T01:46:11.231Z,0
2016-11-30T01:47:11.253Z,0
2016-11-30T01:48:10.629Z,0
2016-11-30T01:49:10.980Z,0
2016-11-30T01:50:11.280Z,0
2016-11-30T01:51:11.281Z,0
2016-11-30T01:52:11.612Z,0
2016-11-30T01:53:11.303Z,0
2016-11-30T01:54:11.953Z,0
2016-11-30T01:55:11.644Z,0
2016-11-30T01:56:11.016Z,0
2016-11-30T01:57:11.348Z,0
2016-11-30T01:58:11.674Z,0
2016-11-30T01:59:11.046Z,0
2016-11-30T02:00:11.376Z,0
2016-11-30T02:01:11.698Z,0
2016-11-30T02:02:11.396Z,0
2016-11-30T02:03:11.407Z,0
2016-11-30T02:04:11.414Z,0
2016-11-30T02:05:11.423Z,0
2016-11-30T02:06:11.755Z,0
2016-11-30T02:07:11.126Z,0
2016-11-30T02:08:11.461Z,0
2016-11-30T02:09:11.464Z,0
2016-11-30T02:10:11.168Z,0
2016-11-30T02:11:11.480Z,0
2016-11-30T02:12:11.534Z,0
2016-11-30T02:13:11.185Z,0
2016-11-30T02:14:11.824Z,0
2016-11-30T02:15:11.522Z,0
2016-11-30T02:16:11.538Z,0
2016-11-30T02:17:11.858Z,0
2016-11-30T02:18:12.205Z,0
2016-11-30T02:19:11.895Z,0
2016-11-30T02:20:10.955Z,0
2016-11-30T02:21:11.580Z,0
2016-11-30T02:22:11.920Z,0
2016-11-30T02:23:11.920Z,0
2016-11-30T02:24:11.611Z,0
2016-11-30T02:25:11.322Z,0
2016-11-30T02:26:11.647Z,0
2016-11-30T02:27:11.640Z,0
2016-11-30T02:28:11.971Z,0
2016-11-30T02:29:11.341Z,0
2016-11-30T02:30:11.998Z,0
2016-11-30T02:31:11.361Z,0
2016-11-30T02:32:11.690Z,0
2016-11-30T02:33:11.390Z,0
2016-11-30T02:34:12.026Z,0
2016-11-30T02:35:12.351Z,0
2016-11-30T02:36:11.407Z,0
2016-11-30T02:37:11.107Z,0
2016-11-30T02:38:12.061Z,0
2016-11-30T02:39:11.446Z,0
2016-11-30T02:40:12.107Z,0
2016-11-30T02:41:11.775Z,0
2016-11-30T02:42:11.788Z,0
2016-11-30T02:43:11.503Z,0
2016-11-30T02:44:12.123Z,0
2016-11-30T02:45:11.505Z,0
2016-11-30T02:46:11.513Z,0
2016-11-30T02:47:11.205Z,0
2016-11-30T02:48:11.851Z,0
2016-11-30T02:49:11.540Z,0
2016-11-30T02:50:11.867Z,0
2016-11-30T02:51:11.879Z,0
2016-11-30T02:52:11.570Z,0
2016-11-30T02:53:11.578Z,0
2016-11-30T02:54:11.602Z,0
2016-11-30T02:55:11.916Z,0
2016-11-30T02:56:12.246Z,0
2016-11-30T02:57:11.619Z,0
2016-11-30T02:58:11.945Z,0
2016-11-30T02:59:11.957Z,0
2016-11-30T03:00:11.655Z,0
2016-11-30T03:01:11.349Z,0
2016-11-30T03:02:12.304Z,0
2016-11-30T03:03:12.001Z,0
2016-11-30T03:04:12.637Z,0
2016-11-30T03:05:12.337Z,0
2016-11-30T03:06:12.027Z,0
2016-11-30T03:07:12.361Z,0
2016-11-30T03:08:12.369Z,0
2016-11-30T03:09:12.072Z,0
2016-11-30T03:10:11.749Z,0
2016-11-30T03:11:11.781Z,0
2016-11-30T03:12:12.425Z,0
2016-11-30T03:13:12.727Z,0
2016-11-30T03:14:11.789Z,0
2016-11-30T03:15:11.798Z,0
2016-11-30T03:16:12.441Z,0
2016-11-30T03:17:12.792Z,0
2016-11-30T03:18:12.800Z,0
2016-11-30T03:19:12.151Z,0
2016-11-30T03:20:11.847Z,0
2016-11-30T03:21:11.860Z,0
2016-11-30T03:22:11.864Z,0
2016-11-30T03:23:11.571Z,0
2016-11-30T03:24:12.528Z,0
2016-11-30T03:25:11.582Z,0
2016-11-30T03:26:12.237Z,0
2016-11-30T03:27:12.236Z,0
2016-11-30T03:28:11.928Z,0
2016-11-30T03:29:12.254Z,0
2016-11-30T03:30:11.632Z,0
2016-11-30T03:31:12.915Z,0
2016-11-30T03:32:12.299Z,0
2016-11-30T03:33:12.609Z,0
2016-11-30T03:34:12.007Z,0
2016-11-30T03:35:12.630Z,0
2016-11-30T03:36:12.014Z,0
2016-11-30T03:37:12.647Z,0
2016-11-30T03:38:12.381Z,0
2016-11-30T03:39:12.359Z,0
2016-11-30T03:40:12.690Z,0
2016-11-30T03:41:12.062Z,0
2016-11-30T03:42:12.742Z,0
2016-11-30T03:43:12.719Z,0
2016-11-30T03:44:11.779Z,0
2016-11-30T03:45:12.418Z,0
2016-11-30T03:46:12.428Z,0
2016-11-30T03:47:13.068Z,0
2016-11-30T03:48:12.134Z,0
2016-11-30T03:49:12.457Z,0
2016-11-30T03:50:12.806Z,0
2016-11-30T03:51:13.109Z,0
2016-11-30T03:52:12.171Z,0
2016-11-30T03:53:12.499Z,0
2016-11-30T03:54:12.506Z,0
2016-11-30T03:55:12.201Z,0
2016-11-30T03:56:12.241Z,0
2016-11-30T03:57:12.238Z,0
2016-11-30T03:58:12.565Z,0
2016-11-30T03:59:12.898Z,0
2016-11-30T04:00:12.913Z,0
2016-11-30T04:01:12.264Z,0
2016-11-30T04:02:12.273Z,0
2016-11-30T04:03:12.599Z,0
2016-11-30T04:04:12.944Z,0
2016-11-30T04:05:12.001Z,0
2016-11-30T04:06:12.325Z,0
2016-11-30T04:07:12.954Z,0
2016-11-30T04:08:12.964Z,0
2016-11-30T04:09:12.977Z,0
2016-11-30T04:10:12.675Z,0
2016-11-30T04:11:12.371Z,0
2016-11-30T04:12:12.375Z,0
2016-11-30T04:13:13.015Z,0
2016-11-30T04:14:12.097Z,0
2016-11-30T04:15:12.405Z,0
2016-11-30T04:16:12.731Z,0
2016-11-30T04:17:12.737Z,0
2016-11-30T04:18:12.435Z,0
2016-11-30T04:19:13.081Z,0
2016-11-30T04:20:13.406Z,0
2016-11-30T04:21:12.774Z,0
2016-11-30T04:22:12.474Z,0
2016-11-30T04:23:12.481Z,0
2016-11-30T04:24:12.492Z,0
2016-11-30T04:25:13.156Z,0
2016-11-30T04:26:12.824Z,0
2016-11-30T04:27:12.845Z,0
2016-11-30T04:28:12.541Z,0
2016-11-30T04:29:13.190Z,0
2016-11-30T04:30:12.869Z,0
2016-11-30T04:31:12.878Z,0
2016-11-30T04:32:12.260Z,0
2016-11-30T04:33:13.218Z,0
2016-11-30T04:34:12.907Z,0
2016-11-30T04:35:13.234Z,0
2016-11-30T04:36:12.612Z,0
2016-11-30T04:37:12.957Z,0
2016-11-30T04:38:13.266Z,0
2016-11-30T04:39:12.654Z,0
2016-11-30T04:40:12.993Z,0
2016-11-30T04:41:12.666Z,0
2016-11-30T04:42:12.357Z,0
2016-11-30T04:43:12.376Z,0
2016-11-30T04:44:13.108Z,0
2016-11-30T04:45:13.018Z,0
2016-11-30T04:46:13.355Z,0
2016-11-30T04:47:12.716Z,0
2016-11-30T04:48:13.047Z,0
2016-11-30T04:49:13.371Z,0
2016-11-30T04:50:13.064Z,0
2016-11-30T04:51:13.705Z,0
2016-11-30T04:52:13.084Z,0
2016-11-30T04:53:12.780Z,0
2016-11-30T04:54:13.735Z,0
2016-11-30T04:55:12.802Z,0
2016-11-30T04:56:12.806Z,0
2016-11-30T04:57:13.139Z,0
2016-11-30T04:58:13.458Z,0
2016-11-30T04:59:12.522Z,0
2016-11-30T05:00:13.166Z,0
2016-11-30T05:01:13.801Z,0
2016-11-30T05:02:12.874Z,0
2016-11-30T05:03:13.502Z,0
2016-11-30T05:04:13.200Z,0
2016-11-30T05:05:13.208Z,0
2016-11-30T05:06:12.910Z,0
2016-11-30T05:07:13.549Z,0
2016-11-30T05:08:12.924Z,0
2016-11-30T05:09:13.878Z,0
2016-11-30T05:10:13.263Z,0
2016-11-30T05:11:12.956Z,0
2016-11-30T05:12:12.959Z,0
2016-11-30T05:13:12.973Z,0
2016-11-30T05:14:13.294Z,0
2016-11-30T05:15:13.968Z,0
2016-11-30T05:16:13.341Z,0
2016-11-30T05:17:12.723Z,0
2016-11-30T05:18:13.021Z,0
2016-11-30T05:19:13.029Z,0
2016-11-30T05:20:14.011Z,0
2016-11-30T05:21:13.049Z,0
2016-11-30T05:22:13.386Z,0
2016-11-30T05:23:13.701Z,0
2016-11-30T05:24:13.077Z,0
2016-11-30T05:25:13.156Z,0
2016-11-30T05:26:13.737Z,0
2016-11-30T05:27:13.425Z,0
2016-11-30T05:28:13.757Z,0
2016-11-30T05:29:13.787Z,0
2016-11-30T05:30:13.471Z,0
2016-11-30T05:31:13.149Z,0
2016-11-30T05:32:13.496Z,0
2016-11-30T05:33:13.515Z,0
2016-11-30T05:34:13.493Z,0
2016-11-30T05:35:13.190Z,0
2016-11-30T05:36:28.087Z,0
2016-11-30T05:37:12.894Z,0
2016-11-30T05:38:12.905Z,0
2016-11-30T05:39:13.575Z,0
2016-11-30T05:40:13.256Z,0
2016-11-30T05:41:13.565Z,0
2016-11-30T05:42:13.264Z,0
2016-11-30T05:43:13.276Z,0
2016-11-30T05:44:12.993Z,0
2016-11-30T05:45:14.263Z,0
2016-11-30T05:46:14.041Z,0
2016-11-30T05:47:13.633Z,0
2016-11-30T05:48:13.631Z,0
2016-11-30T05:49:13.012Z,0
2016-11-30T05:50:13.341Z,0
2016-11-30T05:51:13.669Z,0
2016-11-30T05:52:13.044Z,0
2016-11-30T05:53:13.372Z,0
2016-11-30T05:54:13.375Z,0
2016-11-30T05:55:14.017Z,0
2016-11-30T05:56:13.713Z,0
2016-11-30T05:57:13.730Z,0
2016-11-30T05:58:13.733Z,0
2016-11-30T05:59:14.394Z,0
2016-11-30T06:00:13.754Z,0
2016-11-30T06:01:13.765Z,0
2016-11-30T06:02:14.290Z,0
2016-11-30T06:03:13.464Z,0
2016-11-30T06:04:13.794Z,0
2016-11-30T06:05:13.811Z,0
2016-11-30T06:06:13.501Z,0
2016-11-30T06:07:14.162Z,0
2016-11-30T06:08:13.520Z,0
2016-11-30T06:09:13.539Z,0
2016-11-30T06:10:13.852Z,0
2016-11-30T06:11:13.227Z,0
2016-11-30T06:12:14.182Z,0
2016-11-30T06:13:13.571Z,0
2016-11-30T06:14:13.573Z,0
2016-11-30T06:15:13.584Z,0
2016-11-30T06:16:14.222Z,0
2016-11-30T06:17:13.919Z,0
2016-11-30T06:18:13.967Z,0
2016-11-30T06:19:13.942Z,0
2016-11-30T06:20:14.587Z,0
2016-11-30T06:21:13.961Z,0
2016-11-30T06:22:13.964Z,0
2016-11-30T06:23:14.292Z,0
2016-11-30T06:24:13.687Z,0
2016-11-30T06:25:14.346Z,0
2016-11-30T06:26:14.327Z,0
2016-11-30T06:27:14.341Z,0
2016-11-30T06:28:14.035Z,0
2016-11-30T06:29:14.354Z,0
2016-11-30T06:30:14.373Z,0
2016-11-30T06:31:14.390Z,0
2016-11-30T06:32:14.097Z,0
2016-11-30T06:33:14.407Z,0
2016-11-30T06:34:14.111Z,0
2016-11-30T06:35:14.095Z,0
2016-11-30T06:36:14.105Z,0
2016-11-30T06:37:14.121Z,0
2016-11-30T06:38:14.456Z,0
2016-11-30T06:39:14.479Z,0
2016-11-30T06:40:14.154Z,0
2016-11-30T06:41:13.843Z,0
2016-11-30T06:42:14.167Z,0
2016-11-30T06:43:14.499Z,0
2016-11-30T06:44:14.511Z,0
2016-11-30T06:45:14.839Z,0
2016-11-30T06:46:13.895Z,0
2016-11-30T06:47:13.913Z,0
2016-11-30T06:48:14.866Z,0
2016-11-30T06:49:14.238Z,0
2016-11-30T06:50:13.934Z,0
2016-11-30T06:51:14.260Z,0
2016-11-30T06:52:13.671Z,0
2016-11-30T06:53:14.279Z,0
2016-11-30T06:54:13.972Z,0
2016-11-30T06:55:14.613Z,0
2016-11-30T06:56:14.316Z,0
2016-11-30T06:57:14.327Z,0
2016-11-30T06:58:14.678Z,0
2016-11-30T06:59:14.337Z,0
2016-11-30T07:00:14.354Z,0
2016-11-30T07:01:14.993Z,0
2016-11-30T07:02:14.065Z,0
2016-11-30T07:03:14.066Z,0
2016-11-30T07:04:14.076Z,0
2016-11-30T07:05:14.085Z,0
2016-11-30T07:06:14.414Z,0
2016-11-30T07:07:14.449Z,5
2016-11-30T07:08:14.443Z,5
2016-11-30T07:09:14.444Z,5
2016-11-30T07:10:14.468Z,5
2016-11-30T07:11:14.795Z,5
2016-11-30T07:12:14.503Z,5
2016-11-30T07:13:14.489Z,5
2016-11-30T07:14:14.495Z,5
2016-11-30T07:15:14.508Z,5
2016-11-30T07:16:14.514Z,5
2016-11-30T07:17:14.846Z,5
2016-11-30T07:18:14.866Z,5
2016-11-30T07:19:14.863Z,5
2016-11-30T07:20:14.243Z,5
2016-11-30T07:21:14.883Z,10
2016-11-30T07:22:15.211Z,10
2016-11-30T07:23:14.588Z,10
2016-11-30T07:24:13.985Z,10
2016-11-30T07:25:14.934Z,10
2016-11-30T07:26:14.629Z,10
2016-11-30T07:27:14.333Z,10
2016-11-30T07:28:14.970Z,10
2016-11-30T07:29:15.283Z,10
2016-11-30T07:30:14.663Z,10
2016-11-30T07:31:14.674Z,10
2016-11-30T07:32:14.372Z,10
2016-11-30T07:33:14.710Z,10
2016-11-30T07:34:15.039Z,10
2016-11-30T07:35:14.413Z,10
2016-11-30T07:36:15.366Z,10
2016-11-30T07:37:15.057Z,10
2016-11-30T07:38:15.062Z,10
2016-11-30T07:39:14.753Z,10
2016-11-30T07:40:15.085Z,10
2016-11-30T07:41:14.467Z,10
2016-11-30T07:42:15.426Z,10
2016-11-30T07:43:15.120Z,10
2016-11-30T07:44:15.131Z,10
2016-11-30T07:45:15.144Z,10
2016-11-30T07:46:14.517Z,10
2016-11-30T07:47:14.531Z,10
2016-11-30T07:48:15.175Z,10
2016-11-30T07:49:15.518Z,10
2016-11-30T07:50:14.872Z,10
2016-11-30T07:51:14.927Z,10
2016-11-30T07:52:14.898Z,10
2016-11-30T07:53:14.289Z,10
2016-11-30T07:54:14.923Z,10
2016-11-30T07:55:14.614Z,10
2016-11-30T07:56:14.945Z,10
2016-11-30T07:57:15.290Z,10
2016-11-30T07:58:14.652Z,10
2016-11-30T07:59:15.002Z,15
2016-11-30T08:00:14.983Z,15
2016-11-30T08:01:15.001Z,15
2016-11-30T08:02:15.009Z,15
2016-11-30T08:03:14.709Z,15
2016-11-30T08:04:15.347Z,20
2016-11-30T08:05:14.724Z,20
2016-11-30T08:06:15.687Z,20
2016-11-30T08:07:15.085Z,20
2016-11-30T08:08:15.087Z,20
2016-11-30T08:09:15.080Z,20
2016-11-30T08:10:15.097Z,20
2016-11-30T08:11:15.107Z,20
2016-11-30T08:12:15.126Z,20
2016-11-30T08:13:15.158Z,20
2016-11-30T08:14:14.829Z,20
2016-11-30T08:15:14.836Z,20
2016-11-30T08:16:15.480Z,20
2016-11-30T08:17:14.861Z,20
2016-11-30T08:18:15.186Z,20
2016-11-30T08:19:15.512Z,20
2016-11-30T08:20:15.548Z,15
2016-11-30T08:21:15.220Z,15
2016-11-30T08:22:14.941Z,15
2016-11-30T08:23:15.244Z,20
2016-11-30T08:24:15.252Z,20
2016-11-30T08:25:14.963Z,15
2016-11-30T08:26:15.287Z,15
2016-11-30T08:27:15.604Z,15
2016-11-30T08:28:14.989Z,15
2016-11-30T08:29:15.626Z,15
2016-11-30T08:30:15.640Z,15
2016-11-30T08:31:15.034Z,15
2016-11-30T08:32:15.041Z,15
2016-11-30T08:33:15.380Z,15
2016-11-30T08:34:15.711Z,15
2016-11-30T08:35:14.756Z,15
2016-11-30T08:36:15.079Z,15
2016-11-30T08:37:15.405Z,15
2016-11-30T08:38:15.421Z,15
2016-11-30T08:39:15.752Z,15
2016-11-30T08:40:15.131Z,15
2016-11-30T08:41:15.769Z,15
2016-11-30T08:42:15.472Z,15
2016-11-30T08:43:15.482Z,15
2016-11-30T08:44:15.811Z,15
2016-11-30T08:45:15.506Z,15
2016-11-30T08:46:15.851Z,15
2016-11-30T08:47:15.544Z,20
2016-11-30T08:48:15.223Z,20
2016-11-30T08:49:15.550Z,20
2016-11-30T08:50:15.568Z,20
2016-11-30T08:51:15.896Z,20
2016-11-30T08:52:15.275Z,20
2016-11-30T08:53:15.918Z,25
2016-11-30T08:54:14.980Z,25
2016-11-30T08:55:15.622Z,30
2016-11-30T08:56:15.956Z,30
2016-11-30T08:57:15.032Z,30
2016-11-30T08:58:15.978Z,35
2016-11-30T08:59:15.675Z,40
2016-11-30T09:00:15.686Z,45
2016-11-30T09:01:15.070Z,55
2016-11-30T09:02:15.712Z,60
2016-11-30T09:03:15.749Z,65
2016-11-30T09:04:15.761Z,80
2016-11-30T09:05:16.096Z,85
2016-11-30T09:06:15.448Z,95
2016-11-30T09:07:16.419Z,110
2016-11-30T09:08:15.163Z,125
2016-11-30T09:09:15.178Z,110
2016-11-30T09:10:15.822Z,85
2016-11-30T09:11:15.833Z,85
2016-11-30T09:12:15.530Z,120
2016-11-30T09:13:15.862Z,260
2016-11-30T09:14:15.562Z,265
2016-11-30T09:15:16.227Z,195
2016-11-30T09:16:15.926Z,150
2016-11-30T09:17:16.555Z,145
2016-11-30T09:18:15.935Z,110
2016-11-30T09:19:15.989Z,90
2016-11-30T09:20:15.982Z,90
2016-11-30T09:21:15.985Z,105
2016-11-30T09:22:16.333Z,150
2016-11-30T09:23:15.720Z,190
2016-11-30T09:24:15.728Z,195
2016-11-30T09:25:16.050Z,240
2016-11-30T09:26:16.061Z,175
2016-11-30T09:27:16.390Z,115
2016-11-30T09:28:16.088Z,70
2016-11-30T09:29:16.125Z,100
2016-11-30T09:30:16.120Z,70
2016-11-30T09:31:16.150Z,105
2016-11-30T09:32:16.157Z,105
2016-11-30T09:33:16.175Z,145
2016-11-30T09:34:16.238Z,220
2016-11-30T09:35:16.235Z,245
2016-11-30T09:36:16.235Z,290
2016-11-30T09:37:16.599Z,280
2016-11-30T09:38:16.275Z,255
2016-11-30T09:39:15.970Z,305
2016-11-30T09:40:15.979Z,315
2016-11-30T09:41:16.013Z,225
2016-11-30T09:42:16.330Z,145
2016-11-30T09:43:16.674Z,130
2016-11-30T09:44:16.715Z,125
2016-11-30T09:45:16.385Z,120
2016-11-30T09:46:15.766Z,155
2016-11-30T09:47:17.059Z,165
2016-11-30T09:48:17.094Z,115
2016-11-30T09:49:16.481Z,80
2016-11-30T09:50:15.852Z,65
2016-11-30T09:51:16.508Z,55
2016-11-30T09:52:16.224Z,70
2016-11-30T09:53:16.562Z,80
2016-11-30T09:54:16.238Z,85
2016-11-30T09:55:16.268Z,95
2016-11-30T09:56:16.278Z,105
2016-11-30T09:57:16.614Z,120
2016-11-30T09:58:16.634Z,100
2016-11-30T09:59:16.979Z,80
2016-11-30T10:00:16.972Z,70
2016-11-30T10:01:17.311Z,60
2016-11-30T10:02:16.385Z,70
2016-11-30T10:03:17.036Z,70
2016-11-30T10:04:16.751Z,70
2016-11-30T10:05:16.750Z,70
2016-11-30T10:06:16.766Z,70
2016-11-30T10:07:16.821Z,75
2016-11-30T10:08:16.488Z,80
2016-11-30T10:09:16.832Z,90
2016-11-30T10:10:17.159Z,90
2016-11-30T10:11:16.565Z,100
2016-11-30T10:12:17.200Z,100
2016-11-30T10:13:16.910Z,100
2016-11-30T10:14:16.939Z,105
2016-11-30T10:15:16.943Z,105
2016-11-30T10:16:17.600Z,105
2016-11-30T10:17:16.999Z,100
2016-11-30T10:18:16.707Z,60
2016-11-30T10:19:17.062Z,100
2016-11-30T10:20:16.707Z,110
2016-11-30T10:21:16.727Z,120
2016-11-30T10:22:17.392Z,120
2016-11-30T10:23:17.432Z,115
2016-11-30T10:24:17.098Z,115
2016-11-30T10:25:17.463Z,120
2016-11-30T10:26:17.458Z,145
2016-11-30T10:27:17.805Z,145
2016-11-30T10:28:17.189Z,140
2016-11-30T10:29:16.594Z,135
2016-11-30T10:30:16.940Z,145
2016-11-30T10:31:16.608Z,145
2016-11-30T10:32:17.255Z,160
2016-11-30T10:33:17.283Z,170
2016-11-30T10:34:17.618Z,170
2016-11-30T10:35:17.031Z,155
2016-11-30T10:36:17.045Z,160
2016-11-30T10:37:17.707Z,175
2016-11-30T10:38:17.408Z,185
2016-11-30T10:39:17.405Z,180
2016-11-30T10:40:17.160Z,195
2016-11-30T10:41:16.830Z,200
2016-11-30T10:42:17.481Z,190
2016-11-30T10:43:17.169Z,180
2016-11-30T10:44:17.195Z,175
2016-11-30T10:45:16.892Z,125
2016-11-30T10:46:16.899Z,120
2016-11-30T10:47:16.923Z,100
2016-11-30T10:48:17.573Z,75
2016-11-30T10:49:17.906Z,80
2016-11-30T10:50:17.303Z,75
2016-11-30T10:51:17.635Z,80
2016-11-30T10:52:17.658Z,90
2016-11-30T10:53:17.985Z,90
2016-11-30T10:54:17.384Z,80
2016-11-30T10:55:17.716Z,60
2016-11-30T10:56:18.060Z,60
2016-11-30T10:57:17.435Z,55
2016-11-30T10:58:17.773Z,60
2016-11-30T10:59:17.163Z,65
2016-11-30T11:00:17.494Z,65
2016-11-30T11:01:17.856Z,65
2016-11-30T11:02:17.525Z,65
2016-11-30T11:03:18.216Z,70
2016-11-30T11:04:18.219Z,75
2016-11-30T11:05:18.260Z,70
2016-11-30T11:06:18.255Z,75
2016-11-30T11:07:17.948Z,75
2016-11-30T11:08:17.977Z,75
2016-11-30T11:09:18.316Z,75
2016-11-30T11:10:18.322Z,75
2016-11-30T11:11:18.029Z,75
2016-11-30T11:12:17.725Z,75
2016-11-30T11:13:17.756Z,75
2016-11-30T11:14:18.410Z,75
2016-11-30T11:15:18.113Z,75
2016-11-30T11:16:17.486Z,75
2016-11-30T11:17:17.850Z,70
2016-11-30T11:18:18.497Z,70
2016-11-30T11:19:18.501Z,75
2016-11-30T11:20:18.199Z,75
2016-11-30T11:21:18.219Z,75
2016-11-30T11:22:18.263Z,75
2016-11-30T11:23:18.904Z,75
2016-11-30T11:24:18.607Z,75
2016-11-30T11:25:18.349Z,75
2016-11-30T11:26:18.656Z,75
2016-11-30T11:27:18.979Z,75
2016-11-30T11:28:18.987Z,75
2016-11-30T11:29:18.072Z,75
2016-11-30T11:30:18.080Z,70
2016-11-30T11:31:18.741Z,70
2016-11-30T11:32:18.437Z,70
2016-11-30T11:33:18.466Z,70
2016-11-30T11:34:18.787Z,70
2016-11-30T11:35:18.216Z,70
2016-11-30T11:36:18.203Z,70
2016-11-30T11:37:18.531Z,70
2016-11-30T11:38:18.880Z,70
2016-11-30T11:39:18.270Z,65
2016-11-30T11:40:18.286Z,65
2016-11-30T11:41:18.310Z,65
2016-11-30T11:42:18.651Z,65
2016-11-30T11:43:18.336Z,65
2016-11-30T11:44:18.713Z,70
2016-11-30T11:45:18.698Z,70
2016-11-30T11:46:18.758Z,65
2016-11-30T11:47:18.118Z,65
2016-11-30T11:48:19.084Z,65
2016-11-30T11:49:19.114Z,65
2016-11-30T11:50:18.792Z,65
2016-11-30T11:51:19.465Z,65
2016-11-30T11:52:18.535Z,65
2016-11-30T11:53:19.187Z,65
2016-11-30T11:54:18.559Z,65
2016-11-30T11:55:18.585Z,60
2016-11-30T11:56:18.922Z,65
2016-11-30T11:57:18.956Z,65
2016-11-30T11:58:18.657Z,65
2016-11-30T11:59:18.973Z,65
2016-11-30T12:00:18.690Z,65
2016-11-30T12:01:19.644Z,65
2016-11-30T12:02:18.750Z,65
2016-11-30T12:03:19.701Z,60
2016-11-30T12:04:18.826Z,60
2016-11-30T12:05:19.090Z,65
2016-11-30T12:06:19.435Z,65
2016-11-30T12:07:19.473Z,60
2016-11-30T12:08:19.169Z,60
2016-11-30T12:09:19.203Z,60
2016-11-30T12:10:18.890Z,60
2016-11-30T12:11:18.917Z,60
2016-11-30T12:12:18.927Z,60
2016-11-30T12:13:18.962Z,60
2016-11-30T12:14:19.282Z,65
2016-11-30T12:15:18.987Z,60
2016-11-30T12:16:19.012Z,60
2016-11-30T12:17:19.342Z,50
2016-11-30T12:18:19.681Z,60
2016-11-30T12:19:19.395Z,60
2016-11-30T12:20:18.784Z,60
2016-11-30T12:21:19.421Z,55
2016-11-30T12:22:19.444Z,50
2016-11-30T12:23:19.152Z,55
2016-11-30T12:24:19.484Z,50
2016-11-30T12:25:19.187Z,55
2016-11-30T12:26:19.940Z,50
2016-11-30T12:27:19.239Z,45
2016-11-30T12:28:19.565Z,45
2016-11-30T12:29:19.911Z,45
2016-11-30T12:30:19.922Z,40
2016-11-30T12:31:19.946Z,35
2016-11-30T12:32:19.965Z,40
2016-11-30T12:33:19.686Z,45
2016-11-30T12:34:20.040Z,55
2016-11-30T12:35:19.732Z,50
2016-11-30T12:36:19.734Z,55
2016-11-30T12:37:20.075Z,55
2016-11-30T12:38:20.108Z,55
2016-11-30T12:39:19.793Z,55
2016-11-30T12:40:20.131Z,55
2016-11-30T12:41:20.479Z,55
2016-11-30T12:42:19.852Z,55
2016-11-30T12:43:19.567Z,55
2016-11-30T12:44:19.901Z,55
2016-11-30T12:45:19.926Z,55
2016-11-30T12:46:19.937Z,55
2016-11-30T12:47:19.958Z,55
2016-11-30T12:48:19.660Z,55
2016-11-30T12:49:20.638Z,50
2016-11-30T12:50:19.701Z,55
2016-11-30T12:51:20.053Z,55
2016-11-30T12:52:20.060Z,50
2016-11-30T12:53:19.767Z,55
2016-11-30T12:54:19.783Z,50
2016-11-30T12:55:19.809Z,50
2016-11-30T12:56:20.467Z,50
2016-11-30T12:57:19.854Z,50
2016-11-30T12:58:20.500Z,45
2016-11-30T12:59:20.222Z,45
2016-11-30T13:00:20.536Z,45
2016-11-30T13:01:19.933Z,40
2016-11-30T13:02:19.960Z,40
2016-11-30T13:03:20.285Z,45
2016-11-30T13:04:19.997Z,45
2016-11-30T13:05:20.363Z,45
2016-11-30T13:06:20.352Z,40
2016-11-30T13:07:20.698Z,45
2016-11-30T13:08:20.712Z,45
2016-11-30T13:09:20.731Z,45
2016-11-30T13:10:20.752Z,45
2016-11-30T13:11:20.780Z,40
2016-11-30T13:12:20.474Z,40
2016-11-30T13:13:20.207Z,40
2016-11-30T13:14:20.516Z,40
2016-11-30T13:15:20.246Z,40
2016-11-30T13:16:20.261Z,40
2016-11-30T13:17:20.893Z,40
2016-11-30T13:18:20.281Z,40
2016-11-30T13:19:20.634Z,40
2016-11-30T13:20:20.644Z,40
2016-11-30T13:21:20.984Z,40
2016-11-30T13:22:21.316Z,40
2016-11-30T13:23:20.705Z,40
2016-11-30T13:24:20.407Z,35
2016-11-30T13:25:20.435Z,35
2016-11-30T13:26:20.444Z,35
2016-11-30T13:27:20.784Z,35
2016-11-30T13:28:21.120Z,35
2016-11-30T13:29:21.147Z,35
2016-11-30T13:30:20.532Z,35
2016-11-30T13:31:21.191Z,35
2016-11-30T13:32:21.198Z,35
2016-11-30T13:33:20.611Z,35
2016-11-30T13:34:20.928Z,35
2016-11-30T13:35:20.951Z,35
2016-11-30T13:36:20.652Z,35
2016-11-30T13:37:20.357Z,35
2016-11-30T13:38:21.342Z,35
2016-11-30T13:39:20.414Z,35
2016-11-30T13:40:21.056Z,35
2016-11-30T13:41:20.757Z,35
2016-11-30T13:42:20.804Z,35
2016-11-30T13:43:21.793Z,35
2016-11-30T13:44:21.448Z,35
2016-11-30T13:45:21.481Z,35
2016-11-30T13:46:21.189Z,30
2016-11-30T13:47:21.537Z,30
2016-11-30T13:48:21.529Z,35
2016-11-30T13:49:20.940Z,35
2016-11-30T13:50:20.938Z,35
2016-11-30T13:51:21.920Z,35
2016-11-30T13:52:21.617Z,30
2016-11-30T13:53:21.030Z,30
2016-11-30T13:54:21.332Z,35
2016-11-30T13:55:21.370Z,35
2016-11-30T13:56:21.375Z,35
2016-11-30T13:57:21.409Z,30
2016-11-30T13:58:21.437Z,30
2016-11-30T13:59:21.444Z,30
2016-11-30T14:00:22.124Z,30
2016-11-30T14:01:21.498Z,30
2016-11-30T14:02:21.826Z,30
2016-11-30T14:03:22.155Z,30
2016-11-30T14:04:21.236Z,30
2016-11-30T14:05:21.883Z,30
2016-11-30T14:06:21.277Z,30
2016-11-30T14:07:22.249Z,30
2016-11-30T14:08:21.955Z,30
2016-11-30T14:09:21.643Z,30
2016-11-30T14:10:21.360Z,30
2016-11-30T14:11:21.686Z,30
2016-11-30T14:12:21.077Z,30
2016-11-30T14:13:22.051Z,25
2016-11-30T14:14:21.107Z,25
2016-11-30T14:15:21.766Z,25
2016-11-30T14:16:21.789Z,25
2016-11-30T14:17:21.482Z,20
2016-11-30T14:18:21.515Z,20
2016-11-30T14:19:21.850Z,20
2016-11-30T14:20:22.200Z,20
2016-11-30T14:21:22.202Z,20
2016-11-30T14:22:21.587Z,15
2016-11-30T14:23:22.244Z,15
2016-11-30T14:24:21.634Z,15
2016-11-30T14:25:21.647Z,10
2016-11-30T14:26:21.984Z,10
2016-11-30T14:27:22.008Z,10
2016-11-30T14:28:21.705Z,10